createdAt,value
2023-03-17T09:01:27.434Z,1.00
2023-03-17T09:04:02.865Z,99.90
2023-03-17T09:06:38.793Z,99.90
2023-03-17T09:09:16.231Z,99.90
2023-03-17T09:11:51.364Z,99.90
2023-03-17T09:14:27.598Z,99.90
2023-03-17T09:17:05.980Z,99.90
2023-03-17T09:19:41.666Z,99.90
2023-03-17T09:22:17.852Z,99.90
2023-03-17T09:24:53.281Z,99.90
2023-03-17T09:27:28.238Z,99.90
2023-03-17T09:30:03.644Z,99.90
2023-03-17T09:32:42.972Z,99.90
2023-03-17T09:35:17.979Z,99.90
2023-03-17T09:37:53.087Z,99.90
2023-03-17T09:40:35.568Z,99.90
2023-03-17T09:43:20.144Z,99.90
2023-03-17T09:45:56.222Z,99.90
2023-03-17T09:48:48.337Z,99.90
2023-03-17T09:51:23.632Z,99.90
2023-03-17T09:54:02.593Z,99.90
2023-03-17T09:56:41.133Z,99.90
2023-03-17T09:59:33.213Z,99.20
2023-03-17T10:02:21.037Z,98.40
2023-03-17T10:04:59.253Z,95.70
2023-03-17T10:07:43.602Z,97.20
2023-03-17T10:10:24.610Z,97.40
2023-03-17T10:13:09.538Z,97.50
2023-03-17T10:15:51.015Z,96.40
2023-03-17T10:18:29.894Z,94.50
2023-03-17T10:21:09.448Z,94.30
2023-03-17T10:23:44.566Z,93.40
2023-03-17T10:26:29.750Z,92.90
2023-03-17T10:29:07.694Z,91.70
2023-03-17T10:31:42.724Z,91.60
2023-03-17T10:34:20.300Z,91.50
2023-03-17T10:37:04.188Z,88.60
2023-03-17T10:39:47.539Z,86.90
2023-03-17T10:42:26.447Z,85.80
2023-03-17T10:45:04.432Z,82.40
2023-03-17T10:47:41.905Z,83.20
2023-03-17T10:50:24.724Z,79.70
2023-03-17T10:53:09.614Z,77.40
2023-03-17T10:55:51.674Z,73.30
2023-03-17T10:58:41.754Z,70.00
2023-03-17T11:01:23.899Z,75.90
2023-03-17T11:04:02.586Z,74.90
2023-03-17T11:06:45.015Z,72.60
2023-03-17T11:09:24.422Z,69.80
2023-03-17T11:12:10.681Z,70.70
2023-03-17T11:14:57.010Z,71.30
2023-03-17T11:17:45.566Z,70.60
2023-03-17T11:20:36.303Z,71.50
2023-03-17T11:23:22.645Z,70.70
2023-03-17T11:26:10.472Z,22.90
2023-03-17T11:28:52.127Z,74.50
2023-03-17T11:31:35.306Z,72.50
2023-03-17T11:34:14.895Z,71.90
2023-03-17T11:37:00.152Z,67.50
2023-03-17T11:39:44.496Z,69.80
2023-03-17T11:42:27.644Z,68.70
2023-03-17T11:45:17.362Z,72.80
2023-03-17T11:48:15.759Z,72.20
2023-03-17T11:50:56.548Z,70.80
2023-03-17T11:53:52.114Z,69.60
2023-03-17T11:56:36.436Z,69.80
2023-03-17T11:59:21.888Z,70.70
2023-03-17T12:02:04.816Z,67.10
2023-03-17T12:04:43.565Z,66.80
2023-03-17T12:07:25.845Z,68.40
2023-03-17T12:10:08.897Z,65.80
2023-03-17T12:12:49.039Z,25.80
2023-03-17T12:15:33.915Z,62.90
2023-03-17T12:18:18.414Z,60.30
2023-03-17T12:20:57.382Z,60.00
2023-03-17T12:23:39.247Z,59.50
2023-03-17T12:26:18.725Z,38.90
2023-03-17T12:28:58.502Z,61.70
2023-03-17T12:31:39.354Z,62.70
2023-03-17T12:34:21.452Z,62.50
2023-03-17T12:36:57.287Z,64.40
2023-03-17T12:39:36.217Z,63.20
2023-03-17T12:42:23.805Z,61.60
2023-03-17T12:45:21.199Z,49.20
2023-03-17T12:48:22.400Z,59.40
2023-03-17T12:51:18.244Z,71.20
2023-03-17T12:53:53.720Z,58.70
2023-03-17T12:56:31.688Z,63.20
2023-03-17T12:59:09.040Z,64.00
2023-03-17T13:01:47.547Z,57.60
2023-03-17T13:04:29.902Z,58.50
2023-03-17T13:07:09.288Z,62.30
2023-03-17T13:09:50.887Z,59.50
2023-03-17T13:12:59.481Z,61.00
2023-03-17T13:16:07.880Z,61.30
2023-03-17T13:18:51.489Z,64.50
2023-03-17T13:21:32.905Z,65.50
2023-03-17T13:24:26.764Z,62.00
2023-03-17T13:27:04.693Z,69.00
2023-03-17T13:29:46.532Z,69.30
2023-03-17T13:32:38.668Z,68.90
2023-03-17T13:35:25.779Z,70.80
2023-03-17T13:38:30.968Z,69.60
2023-03-17T13:41:20.853Z,73.20
2023-03-17T13:44:10.227Z,72.80
2023-03-17T13:46:49.505Z,72.90
2023-03-17T13:49:32.244Z,70.10
2023-03-17T13:52:15.648Z,73.20
2023-03-17T13:54:53.147Z,75.90
2023-03-17T13:57:33.420Z,77.00
2023-03-17T14:00:24.665Z,74.20
2023-03-17T14:03:08.107Z,78.60
2023-03-17T14:05:43.850Z,32.20
2023-03-17T14:08:29.743Z,72.80
2023-03-17T14:11:09.501Z,74.70
2023-03-17T14:13:54.716Z,72.70
2023-03-17T14:16:35.018Z,77.50
2023-03-17T14:19:20.785Z,76.80
2023-03-17T14:21:55.950Z,76.90
2023-03-17T14:24:33.668Z,72.30
2023-03-17T14:27:10.531Z,75.50
2023-03-17T14:29:48.288Z,77.10
2023-03-17T14:32:26.856Z,80.00
2023-03-17T14:35:02.265Z,78.20
2023-03-17T14:37:40.840Z,82.60
2023-03-17T14:40:25.282Z,75.90
2023-03-17T14:43:00.702Z,76.10
2023-03-17T14:45:50.628Z,75.90
2023-03-17T14:48:29.632Z,78.10
2023-03-17T14:51:07.969Z,75.40
2023-03-17T14:53:46.454Z,78.50
2023-03-17T14:56:25.762Z,76.80
2023-03-17T14:59:09.217Z,80.50
2023-03-17T15:01:49.775Z,86.30
2023-03-17T15:04:26.477Z,82.40
2023-03-17T15:07:03.727Z,77.60
2023-03-17T15:09:40.679Z,78.60
2023-03-17T15:12:20.913Z,77.70
2023-03-17T15:14:59.561Z,77.20
2023-03-17T15:17:39.604Z,79.50
2023-03-17T15:20:19.065Z,78.50
2023-03-17T15:23:01.108Z,80.30
2023-03-17T15:25:42.428Z,80.30
2023-03-17T15:28:21.195Z,78.60
2023-03-17T15:30:59.407Z,81.10
2023-03-17T15:33:39.488Z,84.40
2023-03-17T15:36:31.899Z,84.00
2023-03-17T15:39:08.028Z,86.50
2023-03-17T15:41:43.126Z,89.70
2023-03-17T15:44:18.589Z,91.70
2023-03-17T15:46:54.467Z,92.50
2023-03-17T15:49:34.944Z,92.70
2023-03-17T15:52:17.472Z,93.60
2023-03-17T15:54:53.429Z,94.50
2023-03-17T15:57:29.055Z,95.20
2023-03-17T16:00:04.436Z,95.10
2023-03-17T16:02:48.522Z,97.50
2023-03-17T16:05:28.350Z,98.90
2023-03-17T16:08:03.794Z,98.60
2023-03-17T16:10:38.764Z,99.80
2023-03-17T16:13:13.928Z,99.90
2023-03-17T16:15:57.915Z,99.90
2023-03-17T16:18:37.057Z,99.90
2023-03-17T16:21:16.725Z,99.90
2023-03-17T16:23:52.244Z,99.90
2023-03-17T16:26:27.363Z,99.90
2023-03-17T16:29:02.426Z,99.90
2023-03-17T16:31:37.700Z,99.90
2023-03-17T16:34:18.758Z,99.90
2023-03-17T16:36:57.046Z,99.90
2023-03-17T16:39:33.590Z,99.90
2023-03-17T16:42:12.383Z,99.90
2023-03-17T16:44:47.754Z,99.90
2023-03-17T16:47:22.744Z,99.90
2023-03-17T16:49:57.649Z,99.90
2023-03-17T16:52:35.538Z,99.90
2023-03-17T16:55:11.220Z,99.90
2023-03-17T16:57:48.904Z,99.90
2023-03-17T17:00:28.218Z,99.90
2023-03-17T17:03:03.264Z,99.90
2023-03-17T17:05:38.485Z,99.90
2023-03-17T17:08:16.341Z,99.90
2023-03-17T17:10:51.807Z,99.90
2023-03-17T17:13:27.219Z,99.90
2023-03-17T17:16:03.131Z,99.90
2023-03-17T17:18:39.137Z,99.90
2023-03-17T17:21:14.684Z,99.90
2023-03-17T17:23:53.152Z,99.90
2023-03-17T17:26:28.337Z,99.90
2023-03-17T17:29:03.474Z,99.90
2023-03-17T17:31:38.563Z,99.90
2023-03-17T17:34:13.549Z,99.90
2023-03-17T17:36:49.278Z,99.90
2023-03-17T17:39:26.813Z,99.90
2023-03-17T17:42:01.830Z,99.90
2023-03-17T17:44:37.515Z,99.90
2023-03-17T17:47:13.480Z,99.90
2023-03-17T17:49:49.114Z,99.90
2023-03-17T17:52:24.170Z,99.90
2023-03-17T17:55:02.970Z,99.90
2023-03-17T17:57:38.671Z,99.90
2023-03-17T18:00:18.038Z,99.90
2023-03-17T18:02:53.657Z,99.90
2023-03-17T18:05:28.882Z,99.90
2023-03-17T18:08:03.831Z,99.90
2023-03-17T18:10:41.438Z,99.90
2023-03-17T18:13:16.364Z,99.90
2023-03-17T18:15:51.949Z,99.90
2023-03-17T18:18:26.972Z,99.90
2023-03-17T18:21:01.940Z,99.90
2023-03-17T18:23:37.418Z,99.90
2023-03-17T18:26:15.408Z,99.90
2023-03-17T18:28:50.911Z,99.90
2023-03-17T18:31:30.302Z,99.90
2023-03-17T18:34:09.332Z,99.90
2023-03-17T18:36:45.009Z,99.90
2023-03-17T18:39:20.768Z,99.90
2023-03-17T18:41:58.585Z,99.90
2023-03-17T18:44:33.517Z,99.90
2023-03-17T18:47:10.569Z,99.90
2023-03-17T18:49:47.170Z,99.90
2023-03-17T18:52:23.121Z,99.90
2023-03-17T18:54:58.034Z,99.90
2023-03-17T18:57:35.874Z,99.90
2023-03-17T19:00:12.732Z,99.90
2023-03-17T19:02:49.231Z,99.90
2023-03-17T19:05:25.680Z,99.90
2023-03-17T19:08:00.633Z,99.90
2023-03-17T19:10:36.533Z,99.90
2023-03-17T19:13:14.218Z,99.90
2023-03-17T19:15:49.196Z,99.90
2023-03-17T19:18:24.114Z,99.90
2023-03-17T19:20:59.364Z,99.90
2023-03-17T19:23:35.985Z,99.90
2023-03-17T19:26:11.848Z,99.90
2023-03-17T19:28:49.848Z,99.90
2023-03-17T19:31:25.061Z,99.90
2023-03-17T19:34:00.423Z,99.90
2023-03-17T19:36:38.876Z,99.90
2023-03-17T19:39:14.166Z,99.90
2023-03-17T19:41:53.318Z,99.90
2023-03-17T19:44:31.656Z,99.90
2023-03-17T19:47:08.382Z,99.90
2023-03-17T19:49:44.811Z,99.90
2023-03-17T19:52:20.233Z,99.90
2023-03-17T19:54:56.475Z,99.90
2023-03-17T19:57:32.154Z,99.90
2023-03-17T20:00:11.948Z,99.90
2023-03-17T20:02:47.791Z,99.90
2023-03-17T20:05:27.130Z,99.90
2023-03-17T20:08:03.001Z,99.90
2023-03-17T20:10:46.163Z,99.90
2023-03-17T20:13:21.954Z,99.90
2023-03-17T20:16:01.825Z,99.90
2023-03-17T20:18:37.332Z,99.90
2023-03-17T20:21:15.735Z,99.90
2023-03-17T20:23:50.743Z,99.90
2023-03-17T20:26:26.676Z,99.90
2023-03-17T20:29:02.211Z,99.90
2023-03-17T20:31:40.455Z,99.90
2023-03-17T20:34:15.423Z,99.90
